Aviation Digital Data Service (ADDS)

Output produced by METARs form (2133 UTC 20 August 2019)
found at http://www.aviationweather.gov/metar/data/
 
Forecast for: EBFS (FLORENNES (BEL-A, BE)
Text: TAF EBFS 201541Z 2019/2107 24007KT 9999 FEW040
Forecast period: 1900 UTC 20 August 2019 to 0700 UTC 21 August 2019
Forecast type: FROM: standard forecast or significant change
Winds: from the WSW (240 degrees) at 8 MPH (7 knots; 3.6 m/s)
Visibility: 6 or more miles 10+ km)
Ceiling: at least 12,000 feet AGL
Clouds: few clouds at 4000 feet AGL
Weather: no significant weather forecast for this period